Terminal Aerodrome Forecast
Issued by NWS

Home | Current Version | Previous Version | Text Only | Print | Product List | Glossary On
Versions: 1 2 3 4 5 6 7 8 9 10 11 12 13 14
000
FTUS42 KMLB 300536
TAFISM
TAF
KISM 300536Z 3006/3106 00000KT P6SM BKN250
     FM300900 19002KT P6SM SCT250
     FM301400 19004KT P6SM FEW030
     FM302000 16005KT P6SM VCTS SCT050CB
     FM310100 13004KT P6SM SCT050 BKN100=

USA.gov is the U.S. government's official web portal to all federal, state and local government web resources and services.